Accueil
METAR-TAF:

METAR-TAF

Aéroports :

Paris-Orly, France

Aéroport de Paris-Orly

latitude: 48-44N, longitude: 002-24E, altitude: 89 m

Observation

Le bulletin a été fait il y a 35 minutes, à 19:00 UTC
Vent 9 kt de nord-est
Température 21°C
Humidité 60%
Pression 1024 hPa
Visibilité 10 km ou plus
Quelques nuages à une hauteur de 4400 ft
Nuages épars à une hauteur de 26000 ft

METAR: LFPO 241900Z 04009KT 9999 FEW044 SCT260 21/13 Q1024 NOSIG

Heure: 21:35 (19:35 UTC)

Prévision

Le bulletin a été fait il y a 2 heures et 35 minutes, à 17:00 UTC
Prévision valable du 24 à 18 UTC au 25 à 24 UTC
Vent 5 kt de nord/nord-est
Visibilité 10 km ou plus
pas de nuages en-dessous de 1500 mètres et pas de cumulonimbus.
Evoluant progressivement
du 25 à 07 UTC au 25 à 10 UTC
Vent 8 kt de est/nord-est

TAF: LFPO 241700Z 2418/2524 03005KT CAVOK BECMG 2507/2510 06008KT

Observations et prévisions météorologiques de plus de 4000 aéroports (messages METAR et TAF).

Les stations disponibles sont représentées par des disques jaunes et rouges sur la carte.

Passer la souris dessus pour voir le nom de la station.

Cliquer dessus pour voir les observations et prévisions météorologiques.

Pour changer de carte: cliquez sur les boutons verts avec une croix noire pour zoomer, sur le bouton vert avec un tiret pour effectuer un zoom arrière, ou sur les flèches vertes pour les cartes adjacentes.


METAR-TAF: